createdAt,value
2022-11-20T00:01:33.176Z,16.02
2022-11-20T00:04:01.654Z,18.52
2022-11-20T00:06:31.116Z,14.35
2022-11-20T00:09:02.581Z,18.58
2022-11-20T00:11:32.947Z,19.35
2022-11-20T00:14:04.574Z,32.60
2022-11-20T00:16:34.724Z,26.05
2022-11-20T00:19:03.326Z,18.70
2022-11-20T00:21:32.343Z,19.52
2022-11-20T00:24:00.719Z,22.27
2022-11-20T00:26:31.331Z,20.33
2022-11-20T00:29:02.848Z,20.38
2022-11-20T00:31:34.139Z,21.50
2022-11-20T00:34:02.519Z,19.73
2022-11-20T00:36:35.567Z,19.40
2022-11-20T00:39:04.367Z,18.45
2022-11-20T00:41:32.712Z,21.38
2022-11-20T00:44:02.631Z,15.95
2022-11-20T00:46:31.078Z,21.17
2022-11-20T00:48:59.762Z,21.70
2022-11-20T00:51:29.393Z,20.00
2022-11-20T00:54:00.843Z,18.20
2022-11-20T00:56:29.139Z,20.75
2022-11-20T00:58:57.493Z,21.30
2022-11-20T01:01:30.129Z,20.10
2022-11-20T01:04:01.660Z,26.83
2022-11-20T01:06:32.915Z,23.38
2022-11-20T01:09:04.009Z,20.85
2022-11-20T01:11:35.995Z,21.83
2022-11-20T01:14:06.995Z,21.73
2022-11-20T01:16:38.920Z,18.33
2022-11-20T01:19:14.808Z,17.38
2022-11-20T01:21:48.192Z,21.88
2022-11-20T01:24:20.847Z,22.67
2022-11-20T01:26:51.823Z,26.98
2022-11-20T01:29:23.519Z,25.40
2022-11-20T01:31:54.576Z,20.98
2022-11-20T01:34:24.847Z,17.13
2022-11-20T01:36:54.235Z,18.10
2022-11-20T01:39:24.672Z,23.35
2022-11-20T01:42:12.469Z,20.50
2022-11-20T01:44:57.179Z,18.52
2022-11-20T01:47:33.734Z,17.58
2022-11-20T01:50:12.323Z,18.17
2022-11-20T01:52:47.025Z,22.30
2022-11-20T01:55:20.018Z,30.17
2022-11-20T01:57:50.442Z,23.73
2022-11-20T02:00:21.983Z,22.40
2022-11-20T02:02:59.839Z,21.60
2022-11-20T02:05:36.183Z,22.48
2022-11-20T02:08:07.658Z,26.08
2022-11-20T02:10:37.124Z,21.73
2022-11-20T02:13:23.566Z,16.23
2022-11-20T02:15:52.409Z,16.55
2022-11-20T02:18:23.998Z,21.35
2022-11-20T02:21:00.159Z,21.17
2022-11-20T02:23:35.161Z,18.75
2022-11-20T02:26:10.334Z,28.63
2022-11-20T02:28:38.789Z,29.83
2022-11-20T02:31:07.229Z,36.67
2022-11-20T02:33:35.454Z,36.38
2022-11-20T02:36:04.239Z,33.03
2022-11-20T02:38:32.664Z,42.00
2022-11-20T02:41:00.947Z,34.15
2022-11-20T02:43:30.552Z,33.15
2022-11-20T02:45:58.937Z,27.85
2022-11-20T02:48:30.136Z,30.75
2022-11-20T02:51:00.969Z,28.33
2022-11-20T02:53:29.159Z,23.15
2022-11-20T02:55:57.458Z,21.30
2022-11-20T02:58:25.769Z,22.50
2022-11-20T03:00:56.079Z,22.10
2022-11-20T03:03:25.451Z,24.92
2022-11-20T03:05:53.740Z,17.90
2022-11-20T03:08:21.951Z,18.60
2022-11-20T03:10:50.240Z,20.02
2022-11-20T03:13:18.526Z,17.33
2022-11-20T03:15:46.846Z,21.13
2022-11-20T03:18:16.430Z,21.50
2022-11-20T03:20:44.677Z,13.75
2022-11-20T03:23:12.990Z,18.23
2022-11-20T03:25:41.243Z,18.15
2022-11-20T03:28:09.674Z,20.25
2022-11-20T03:30:38.122Z,23.92
2022-11-20T03:33:06.398Z,23.15
2022-11-20T03:35:36.035Z,24.60
2022-11-20T03:38:04.314Z,19.33
2022-11-20T03:40:32.577Z,18.58
2022-11-20T03:43:00.804Z,22.83
2022-11-20T03:45:29.038Z,21.05
2022-11-20T03:47:57.286Z,23.15
2022-11-20T03:50:25.520Z,19.35
2022-11-20T03:52:55.172Z,23.15
2022-11-20T03:55:23.340Z,26.60
2022-11-20T03:57:51.625Z,22.40
2022-11-20T04:00:20.358Z,23.63
2022-11-20T04:02:48.527Z,21.23
2022-11-20T04:05:17.007Z,19.25
2022-11-20T04:07:45.230Z,21.13
2022-11-20T04:10:14.911Z,20.17
2022-11-20T04:12:43.174Z,23.23
2022-11-20T04:15:11.976Z,16.77
2022-11-20T04:17:40.178Z,23.23
2022-11-20T04:20:10.092Z,22.02
2022-11-20T04:22:38.303Z,22.05
2022-11-20T04:25:07.620Z,22.65
2022-11-20T04:27:37.252Z,23.55
2022-11-20T04:30:06.497Z,20.80
2022-11-20T04:32:34.758Z,19.08
2022-11-20T04:35:03.034Z,18.58
2022-11-20T04:37:31.238Z,20.48
2022-11-20T04:39:59.474Z,18.90
2022-11-20T04:42:30.758Z,23.02
2022-11-20T04:45:00.459Z,18.45
2022-11-20T04:47:28.690Z,17.30
2022-11-20T04:49:57.055Z,20.60
2022-11-20T04:52:25.450Z,21.50
2022-11-20T04:54:54.797Z,22.35
2022-11-20T04:57:23.186Z,21.83
2022-11-20T04:59:51.515Z,21.17
2022-11-20T05:02:21.389Z,24.05
2022-11-20T05:04:49.755Z,25.40
2022-11-20T05:07:18.254Z,23.55
2022-11-20T05:09:46.674Z,20.23
2022-11-20T05:12:14.941Z,18.98
2022-11-20T05:14:43.189Z,23.90
2022-11-20T05:17:13.655Z,20.75
2022-11-20T05:19:43.244Z,25.05
2022-11-20T05:22:11.536Z,27.08
2022-11-20T05:24:39.936Z,18.38
2022-11-20T05:27:08.191Z,17.10
2022-11-20T05:29:36.450Z,25.60
2022-11-20T05:32:06.772Z,23.38
2022-11-20T05:34:35.074Z,31.70
2022-11-20T05:37:05.248Z,19.35
2022-11-20T05:39:33.507Z,21.70
2022-11-20T05:42:19.138Z,26.42
2022-11-20T05:44:47.608Z,25.13
2022-11-20T05:47:15.999Z,25.17
2022-11-20T05:49:44.230Z,23.08
2022-11-20T05:52:13.898Z,23.45
2022-11-20T05:54:42.273Z,25.75
2022-11-20T05:57:10.609Z,22.45
2022-11-20T05:59:38.871Z,19.88
2022-11-20T06:02:07.547Z,19.50
2022-11-20T06:04:35.820Z,25.20
2022-11-20T06:07:04.116Z,15.43
2022-11-20T06:09:33.839Z,23.83
2022-11-20T06:12:02.202Z,28.85
2022-11-20T06:14:30.494Z,23.85
2022-11-20T06:16:58.732Z,20.08
2022-11-20T06:19:27.025Z,23.25
2022-11-20T06:21:55.719Z,21.08
2022-11-20T06:24:24.155Z,24.20
2022-11-20T06:26:53.991Z,24.05
2022-11-20T06:29:22.641Z,20.52
2022-11-20T06:31:51.161Z,24.80
2022-11-20T06:34:19.783Z,17.55
2022-11-20T06:36:48.003Z,21.60
2022-11-20T06:39:16.384Z,25.13
2022-11-20T06:41:44.629Z,28.08
2022-11-20T06:44:14.490Z,24.80
2022-11-20T06:46:42.792Z,23.55
2022-11-20T06:49:11.211Z,17.25
2022-11-20T06:51:39.492Z,19.73
2022-11-20T06:54:07.911Z,23.65
2022-11-20T06:56:36.137Z,27.35
2022-11-20T06:59:07.318Z,22.92
2022-11-20T07:01:37.167Z,19.58
2022-11-20T07:04:05.804Z,25.63
2022-11-20T07:06:34.122Z,20.85
2022-11-20T07:09:02.610Z,21.80
2022-11-20T07:11:30.869Z,26.23
2022-11-20T07:13:59.847Z,26.35
2022-11-20T07:16:28.275Z,22.65
2022-11-20T07:18:57.937Z,20.70
2022-11-20T07:21:26.146Z,22.23
2022-11-20T07:23:54.478Z,23.70
2022-11-20T07:26:22.771Z,19.35
2022-11-20T07:28:51.111Z,21.55
2022-11-20T07:31:19.872Z,24.40
2022-11-20T07:33:48.445Z,21.67
2022-11-20T07:36:18.059Z,22.33
2022-11-20T07:38:46.506Z,25.73
2022-11-20T07:41:14.829Z,25.63
2022-11-20T07:43:43.103Z,20.92
2022-11-20T07:46:11.407Z,25.73
2022-11-20T07:48:39.765Z,25.85
2022-11-20T07:51:08.431Z,24.80
2022-11-20T07:53:38.075Z,28.80
2022-11-20T07:56:07.072Z,26.30
2022-11-20T07:58:35.620Z,25.98
2022-11-20T08:01:07.552Z,25.33
2022-11-20T08:03:38.505Z,25.27
2022-11-20T08:06:08.173Z,27.02
2022-11-20T08:08:42.404Z,26.77
2022-11-20T08:11:28.723Z,28.50
2022-11-20T08:14:15.376Z,23.00
2022-11-20T08:16:46.556Z,23.00
2022-11-20T08:19:16.887Z,25.15
2022-11-20T08:21:45.792Z,25.73
2022-11-20T08:24:15.580Z,23.00
2022-11-20T08:26:44.641Z,23.07
2022-11-20T08:29:13.366Z,26.50
2022-11-20T08:31:42.122Z,23.20
2022-11-20T08:34:12.909Z,25.20
2022-11-20T08:36:44.927Z,23.63
2022-11-20T08:39:16.512Z,28.60
2022-11-20T08:41:45.198Z,25.23
2022-11-20T08:44:13.650Z,29.13
2022-11-20T08:46:44.652Z,25.67
2022-11-20T08:49:15.258Z,24.80
2022-11-20T08:51:44.268Z,30.77
2022-11-20T08:54:12.611Z,23.10
2022-11-20T08:56:42.287Z,30.53
2022-11-20T08:59:23.403Z,30.37
2022-11-20T09:01:59.478Z,23.57
2022-11-20T09:04:27.864Z,22.87
2022-11-20T09:06:56.393Z,28.27
2022-11-20T09:09:25.080Z,31.40
2022-11-20T09:11:54.895Z,26.80
2022-11-20T09:14:25.815Z,28.20
2022-11-20T09:16:54.208Z,27.63
2022-11-20T09:19:38.000Z,30.93
2022-11-20T09:22:06.424Z,26.70
2022-11-20T09:24:34.821Z,28.60
2022-11-20T09:27:06.953Z,26.87
2022-11-20T09:29:35.764Z,24.73
2022-11-20T09:32:04.662Z,35.30
2022-11-20T09:34:32.949Z,29.87
2022-11-20T09:37:04.511Z,28.87
2022-11-20T09:39:40.010Z,35.70
2022-11-20T09:42:30.236Z,32.70
2022-11-20T09:45:15.081Z,32.97
2022-11-20T09:48:00.236Z,25.37
2022-11-20T09:50:37.960Z,30.03
2022-11-20T09:53:22.324Z,28.73
2022-11-20T09:55:51.085Z,37.77
2022-11-20T09:58:33.152Z,34.17
2022-11-20T10:01:12.266Z,34.67
2022-11-20T10:03:52.636Z,31.50
2022-11-20T10:06:34.630Z,35.73
2022-11-20T10:09:19.201Z,31.93
2022-11-20T10:11:58.936Z,31.07
2022-11-20T10:14:40.437Z,39.57
2022-11-20T10:17:20.653Z,33.80
2022-11-20T10:20:15.203Z,36.83
2022-11-20T10:23:03.110Z,37.53
2022-11-20T10:25:40.976Z,30.87
2022-11-20T10:28:30.020Z,33.50
2022-11-20T10:31:05.193Z,37.20
2022-11-20T10:33:57.108Z,31.93
2022-11-20T10:36:32.569Z,28.73
2022-11-20T10:39:08.531Z,33.90
2022-11-20T10:41:43.099Z,26.67
2022-11-20T10:44:36.754Z,31.30
2022-11-20T10:47:14.660Z,33.07
2022-11-20T10:49:45.460Z,32.57
2022-11-20T10:52:22.898Z,34.83
2022-11-20T10:55:00.984Z,31.17
2022-11-20T10:57:51.177Z,37.67
2022-11-20T11:00:19.802Z,33.20
2022-11-20T11:02:52.446Z,33.67
2022-11-20T11:05:34.472Z,35.73
2022-11-20T11:08:03.268Z,36.07
2022-11-20T11:10:42.268Z,30.07
2022-11-20T11:13:22.930Z,34.70
2022-11-20T11:15:51.719Z,31.77
2022-11-20T11:18:30.853Z,37.07
2022-11-20T11:21:02.359Z,32.73
2022-11-20T11:23:37.240Z,41.20
2022-11-20T11:26:09.492Z,33.03
2022-11-20T11:28:38.137Z,36.83
2022-11-20T11:31:06.414Z,39.17
2022-11-20T11:33:36.848Z,26.43
2022-11-20T11:36:18.512Z,36.60
2022-11-20T11:38:47.222Z,36.80
2022-11-20T11:41:19.371Z,34.53
2022-11-20T11:44:12.175Z,38.20
2022-11-20T11:46:42.575Z,36.03
2022-11-20T11:49:21.495Z,36.13
2022-11-20T11:52:06.807Z,35.33
2022-11-20T11:54:43.670Z,36.43
2022-11-20T11:57:20.250Z,42.70
2022-11-20T12:00:01.794Z,46.77
2022-11-20T12:02:41.210Z,42.50
2022-11-20T12:05:21.881Z,42.80
2022-11-20T12:07:55.285Z,50.27
2022-11-20T12:10:32.347Z,38.77
2022-11-20T12:13:11.777Z,49.67
2022-11-20T12:15:46.416Z,50.97
2022-11-20T12:18:22.411Z,45.90
2022-11-20T12:21:12.077Z,48.13
2022-11-20T12:23:55.390Z,53.63
2022-11-20T12:26:41.607Z,40.63
2022-11-20T12:29:18.126Z,42.77
2022-11-20T12:32:37.516Z,38.17
2022-11-20T12:35:26.883Z,43.60
2022-11-20T12:38:14.814Z,45.10
2022-11-20T12:40:53.287Z,53.57
2022-11-20T12:43:48.163Z,51.13
2022-11-20T12:46:33.309Z,44.77
2022-11-20T12:49:31.120Z,46.10
2022-11-20T12:52:27.221Z,48.87
2022-11-20T12:55:27.654Z,47.73
2022-11-20T12:58:04.071Z,43.77
2022-11-20T13:00:35.859Z,45.07
2022-11-20T13:03:47.554Z,52.43
2022-11-20T13:06:19.063Z,43.83
2022-11-20T13:08:55.023Z,55.83
2022-11-20T13:11:34.392Z,44.57
2022-11-20T13:14:34.323Z,46.70
2022-11-20T13:17:12.072Z,48.57
2022-11-20T13:19:40.928Z,46.77
2022-11-20T13:22:11.237Z,50.30
2022-11-20T13:24:39.864Z,52.73
2022-11-20T13:27:22.757Z,47.90
2022-11-20T13:30:05.306Z,42.10
2022-11-20T13:32:34.320Z,51.83
2022-11-20T13:35:06.759Z,39.33
2022-11-20T13:37:38.022Z,45.67
2022-11-20T13:40:25.409Z,47.80
2022-11-20T13:43:04.288Z,52.33
2022-11-20T13:45:34.553Z,45.10
2022-11-20T13:48:07.371Z,43.57
2022-11-20T13:50:57.377Z,53.07
2022-11-20T13:53:56.922Z,46.23
2022-11-20T13:56:36.547Z,47.27
2022-11-20T13:59:19.098Z,45.70
2022-11-20T14:01:49.066Z,45.07
2022-11-20T14:04:26.291Z,43.77
2022-11-20T14:06:55.100Z,42.03
2022-11-20T14:09:31.916Z,44.37
2022-11-20T14:12:01.408Z,45.43
2022-11-20T14:14:33.470Z,40.50
2022-11-20T14:17:08.862Z,36.80
2022-11-20T14:19:38.306Z,43.70
2022-11-20T14:22:19.654Z,46.33
2022-11-20T14:24:50.692Z,46.80
2022-11-20T14:27:22.542Z,44.13
2022-11-20T14:29:53.145Z,45.23
2022-11-20T14:32:30.045Z,46.50
2022-11-20T14:35:11.555Z,55.17
2022-11-20T14:37:41.436Z,42.17
2022-11-20T14:40:28.370Z,50.07
2022-11-20T14:42:57.545Z,48.73
2022-11-20T14:45:28.650Z,46.73
2022-11-20T14:48:00.179Z,42.30
2022-11-20T14:50:31.420Z,48.07
2022-11-20T14:53:02.122Z,40.87
2022-11-20T14:55:33.886Z,53.33
2022-11-20T14:58:04.992Z,47.43
2022-11-20T15:00:36.733Z,47.57
2022-11-20T15:03:17.115Z,49.03
2022-11-20T15:05:50.846Z,41.30
2022-11-20T15:08:19.530Z,43.47
2022-11-20T15:10:50.344Z,39.57
2022-11-20T15:13:27.369Z,43.43
2022-11-20T15:16:00.262Z,41.80
2022-11-20T15:18:32.888Z,48.03
2022-11-20T15:21:05.319Z,36.73
2022-11-20T15:23:33.825Z,45.53
2022-11-20T15:26:02.153Z,49.20
2022-11-20T15:28:35.481Z,46.97
2022-11-20T15:31:05.821Z,48.40
2022-11-20T15:33:35.627Z,40.93
2022-11-20T15:36:04.255Z,43.50
2022-11-20T15:38:32.831Z,47.87
2022-11-20T15:41:01.171Z,52.30
2022-11-20T15:43:29.440Z,37.50
2022-11-20T15:46:01.989Z,38.73
2022-11-20T15:48:36.350Z,43.33
2022-11-20T15:51:14.105Z,45.23
2022-11-20T15:53:44.040Z,40.73
2022-11-20T15:56:15.167Z,43.90
2022-11-20T15:58:43.907Z,37.47
2022-11-20T16:01:13.994Z,46.30
2022-11-20T16:03:44.065Z,43.20
2022-11-20T16:06:12.407Z,34.53
2022-11-20T16:08:40.810Z,38.73
2022-11-20T16:11:10.389Z,44.03
2022-11-20T16:13:56.158Z,42.47
2022-11-20T16:16:29.594Z,39.90
2022-11-20T16:18:59.387Z,38.43
2022-11-20T16:21:32.052Z,34.80
2022-11-20T16:24:01.294Z,34.77
2022-11-20T16:26:30.477Z,37.57
2022-11-20T16:29:00.279Z,29.63
2022-11-20T16:31:28.803Z,30.20
2022-11-20T16:34:05.880Z,21.37
2022-11-20T16:36:41.070Z,20.80
2022-11-20T16:39:09.424Z,24.43
2022-11-20T16:41:38.289Z,22.50
2022-11-20T16:44:11.138Z,17.77
2022-11-20T16:46:40.828Z,20.33
2022-11-20T16:49:15.511Z,19.77
2022-11-20T16:51:44.280Z,17.87
2022-11-20T16:54:17.882Z,15.83
2022-11-20T16:56:48.502Z,25.23
2022-11-20T16:59:16.922Z,21.07
2022-11-20T17:01:45.243Z,15.13
2022-11-20T17:04:14.950Z,24.43
2022-11-20T17:06:45.535Z,16.20
2022-11-20T17:09:14.187Z,13.30
2022-11-20T17:11:42.509Z,15.10
2022-11-20T17:14:13.015Z,14.33
2022-11-20T17:16:41.727Z,18.73
2022-11-20T17:19:10.678Z,20.63
2022-11-20T17:21:40.470Z,19.43
2022-11-20T17:24:12.528Z,13.30
2022-11-20T17:26:43.323Z,19.10
2022-11-20T17:29:14.989Z,15.23
2022-11-20T17:31:44.422Z,18.60
2022-11-20T17:34:15.492Z,18.93
2022-11-20T17:36:46.634Z,20.37
2022-11-20T17:39:16.659Z,16.43
2022-11-20T17:41:45.981Z,25.00
2022-11-20T17:44:14.832Z,20.00
2022-11-20T17:46:43.184Z,20.80
2022-11-20T17:49:11.562Z,23.53
2022-11-20T17:51:40.707Z,19.70
2022-11-20T17:54:12.317Z,28.17
2022-11-20T17:56:58.134Z,22.27
2022-11-20T17:59:26.430Z,23.90
2022-11-20T18:01:56.774Z,27.17
2022-11-20T18:04:27.974Z,27.73
2022-11-20T18:06:56.524Z,28.50
2022-11-20T18:09:26.331Z,30.57
2022-11-20T18:11:54.646Z,34.30
2022-11-20T18:14:34.501Z,35.80
2022-11-20T18:17:05.744Z,29.50
2022-11-20T18:19:42.692Z,29.70
2022-11-20T18:22:21.122Z,35.70
2022-11-20T18:24:51.236Z,33.00
2022-11-20T18:27:22.077Z,30.13
2022-11-20T18:29:52.205Z,46.73
2022-11-20T18:32:21.608Z,37.07
2022-11-20T18:34:50.119Z,34.53
2022-11-20T18:37:18.783Z,39.97
2022-11-20T18:39:47.370Z,44.77
2022-11-20T18:42:44.688Z,40.47
2022-11-20T18:45:12.945Z,44.40
2022-11-20T18:47:41.224Z,39.70
2022-11-20T18:50:10.902Z,47.37
2022-11-20T18:52:45.352Z,39.43
2022-11-20T18:55:14.150Z,38.23
2022-11-20T18:57:43.947Z,37.73
2022-11-20T19:00:13.971Z,35.30
2022-11-20T19:05:30.658Z,36.50
2022-11-20T19:07:59.044Z,37.00
2022-11-20T19:10:27.440Z,38.27
2022-11-20T19:12:58.698Z,43.57
2022-11-20T19:15:27.668Z,39.30
2022-11-20T19:17:57.686Z,38.37
2022-11-20T19:20:26.937Z,39.87
2022-11-20T19:22:55.344Z,39.80
2022-11-20T19:25:23.706Z,37.50
2022-11-20T19:27:52.207Z,36.77
2022-11-20T19:30:21.916Z,42.27
2022-11-20T19:32:50.453Z,45.13
2022-11-20T19:35:19.250Z,36.77
2022-11-20T19:37:47.565Z,35.67
2022-11-20T19:40:16.002Z,45.00
2022-11-20T19:42:44.210Z,38.90
2022-11-20T19:45:12.834Z,47.53
2022-11-20T19:50:32.470Z,35.17
2022-11-20T19:53:00.920Z,36.73
2022-11-20T19:55:29.193Z,35.43
2022-11-20T19:57:58.198Z,37.10
2022-11-20T20:00:31.153Z,30.00
2022-11-20T20:03:02.247Z,33.07
2022-11-20T20:05:30.792Z,40.43
2022-11-20T20:07:59.106Z,44.60
2022-11-20T20:10:28.338Z,34.20
2022-11-20T20:12:57.143Z,43.23
2022-11-20T20:15:25.776Z,37.97
2022-11-20T20:17:54.539Z,34.57
2022-11-20T20:20:24.563Z,39.97
2022-11-20T20:22:53.161Z,40.80
2022-11-20T20:25:21.481Z,31.60
2022-11-20T20:27:49.823Z,27.07
2022-11-20T20:30:18.163Z,32.77
2022-11-20T20:32:46.456Z,45.73
2022-11-20T20:35:14.776Z,32.37
2022-11-20T20:37:47.386Z,27.13
2022-11-20T20:40:15.861Z,31.40
2022-11-20T20:42:44.272Z,33.50
2022-11-20T20:45:11.807Z,28.53
2022-11-20T20:47:41.950Z,19.87
2022-11-20T20:50:13.247Z,20.77
2022-11-20T20:52:43.139Z,21.47
2022-11-20T20:55:12.381Z,23.77
2022-11-20T20:57:40.884Z,16.03
2022-11-20T21:00:10.538Z,15.47
2022-11-20T21:02:39.001Z,20.50
2022-11-20T21:05:08.227Z,20.33
2022-11-20T21:07:57.157Z,19.13
2022-11-20T21:10:26.896Z,16.90
2022-11-20T21:12:55.281Z,17.10
2022-11-20T21:15:23.666Z,22.10
2022-11-20T21:17:52.376Z,18.07
2022-11-20T21:20:38.230Z,19.40
2022-11-20T21:23:11.072Z,19.10
2022-11-20T21:25:41.360Z,19.57
2022-11-20T21:28:13.169Z,18.60
2022-11-20T21:30:45.494Z,16.13
2022-11-20T21:33:14.216Z,18.07
2022-11-20T21:35:42.423Z,20.63
2022-11-20T21:38:10.699Z,23.87
2022-11-20T21:40:40.282Z,15.90
2022-11-20T21:43:08.492Z,17.03
2022-11-20T21:45:36.850Z,19.30
2022-11-20T21:48:05.979Z,17.33
2022-11-20T21:50:36.309Z,13.93
2022-11-20T21:53:04.626Z,19.07
2022-11-20T21:55:33.124Z,15.07
2022-11-20T21:58:02.801Z,21.63
2022-11-20T22:00:31.107Z,23.50
2022-11-20T22:02:59.534Z,29.37
2022-11-20T22:05:28.146Z,22.67
2022-11-20T22:07:56.390Z,35.27
2022-11-20T22:10:24.863Z,26.87
2022-11-20T22:13:16.144Z,25.50
2022-11-20T22:15:59.919Z,26.33
2022-11-20T22:18:29.236Z,26.60
2022-11-20T22:20:57.623Z,22.17
2022-11-20T22:23:25.904Z,20.30
2022-11-20T22:25:54.173Z,25.97
2022-11-20T22:28:22.457Z,13.80
2022-11-20T22:30:52.073Z,27.30
2022-11-20T22:33:20.320Z,16.07
2022-11-20T22:35:48.560Z,10.03
2022-11-20T22:38:16.852Z,11.37
2022-11-20T22:40:46.709Z,12.73
2022-11-20T22:43:16.251Z,16.20
2022-11-20T22:45:45.638Z,20.60
2022-11-20T22:48:15.326Z,15.87
2022-11-20T22:50:43.782Z,15.30
2022-11-20T22:53:12.030Z,16.90
2022-11-20T22:55:40.254Z,16.53
2022-11-20T22:58:08.583Z,14.73
2022-11-20T23:00:36.822Z,16.23
2022-11-20T23:03:05.145Z,13.47
2022-11-20T23:05:35.274Z,17.10
2022-11-20T23:08:03.465Z,13.80
2022-11-20T23:10:32.040Z,12.67
2022-11-20T23:13:00.317Z,14.63
2022-11-20T23:15:28.591Z,8.20
2022-11-20T23:17:56.800Z,5.53
2022-11-20T23:20:25.002Z,7.93
2022-11-20T23:22:54.570Z,9.10
2022-11-20T23:25:23.021Z,11.67
2022-11-20T23:27:51.301Z,13.83
2022-11-20T23:30:19.731Z,11.17
2022-11-20T23:32:47.985Z,11.07
2022-11-20T23:35:16.407Z,7.20
2022-11-20T23:37:44.671Z,6.10
2022-11-20T23:40:14.511Z,3.77
2022-11-20T23:43:03.261Z,5.80
2022-11-20T23:45:31.681Z,4.30
2022-11-20T23:47:59.938Z,8.10
2022-11-20T23:50:28.375Z,6.00
2022-11-20T23:52:56.614Z,5.53
2022-11-20T23:55:26.400Z,3.77
2022-11-20T23:57:54.669Z,5.77
